sensor_id;sensor_type;location;lat;lon;timestamp;pressure;altitude;pressure_sealevel;temperature;humidity
46394;BME280;32099;53.588;10.176;2024-03-23T00:54:01;100431.94;;;7.62;89.71
46394;BME280;32099;53.588;10.176;2024-03-23T00:56:27;100443.47;;;7.64;90.04
46394;BME280;32099;53.588;10.176;2024-03-23T00:58:53;100438.03;;;7.64;89.90
46394;BME280;32099;53.588;10.176;2024-03-23T01:01:18;100431.25;;;7.60;90.06
46394;BME280;32099;53.588;10.176;2024-03-23T01:03:44;100417.69;;;7.60;89.86
46394;BME280;32099;53.588;10.176;2024-03-23T01:06:10;100422.25;;;7.60;90.42
46394;BME280;32099;53.588;10.176;2024-03-23T01:08:38;100428.53;;;7.60;90.07
46394;BME280;32099;53.588;10.176;2024-03-23T01:11:04;100416.00;;;7.59;89.77
46394;BME280;32099;53.588;10.176;2024-03-23T01:13:30;100408.88;;;7.58;89.75
46394;BME280;32099;53.588;10.176;2024-03-23T01:15:56;100409.72;;;7.59;90.10
46394;BME280;32099;53.588;10.176;2024-03-23T01:18:22;100414.28;;;7.58;90.51
46394;BME280;32099;53.588;10.176;2024-03-23T01:20:49;100404.44;;;7.57;89.89
46394;BME280;32099;53.588;10.176;2024-03-23T01:23:15;100409.56;;;7.52;90.31
46394;BME280;32099;53.588;10.176;2024-03-23T01:25:44;100408.38;;;7.46;90.59
46394;BME280;32099;53.588;10.176;2024-03-23T01:28:17;100390.41;;;7.45;90.77
46394;BME280;32099;53.588;10.176;2024-03-23T01:30:43;100390.41;;;7.45;90.03
46394;BME280;32099;53.588;10.176;2024-03-23T01:33:08;100386.84;;;7.45;90.08
46394;BME280;32099;53.588;10.176;2024-03-23T01:35:34;100387.19;;;7.41;91.03
46394;BME280;32099;53.588;10.176;2024-03-23T01:38:00;100391.94;;;7.39;90.13
46394;BME280;32099;53.588;10.176;2024-03-23T01:40:26;100387.53;;;7.38;91.09
46394;BME280;32099;53.588;10.176;2024-03-23T01:42:58;100378.53;;;7.38;90.86
46394;BME280;32099;53.588;10.176;2024-03-23T01:45:29;100384.13;;;7.36;90.47
46394;BME280;32099;53.588;10.176;2024-03-23T01:47:56;100368.19;;;7.33;90.84
46394;BME280;32099;53.588;10.176;2024-03-23T01:50:22;100369.22;;;7.32;91.18
46394;BME280;32099;53.588;10.176;2024-03-23T01:52:48;100379.41;;;7.30;91.28
46394;BME280;32099;53.588;10.176;2024-03-23T01:55:14;100362.28;;;7.30;90.50
46394;BME280;32099;53.588;10.176;2024-03-23T01:57:41;100351.41;;;7.30;91.04
46394;BME280;32099;53.588;10.176;2024-03-23T02:00:10;100349.72;;;7.29;90.39
46394;BME280;32099;53.588;10.176;2024-03-23T02:02:43;100346.50;;;7.25;90.98
46394;BME280;32099;53.588;10.176;2024-03-23T02:05:09;100350.06;;;7.25;90.96
46394;BME280;32099;53.588;10.176;2024-03-23T02:07:35;100348.38;;;7.24;91.12
46394;BME280;32099;53.588;10.176;2024-03-23T02:10:02;100336.19;;;7.20;90.83
46394;BME280;32099;53.588;10.176;2024-03-23T02:12:28;100316.53;;;7.02;90.77
46394;BME280;32099;53.588;10.176;2024-03-23T02:14:54;100338.91;;;7.12;90.96
46394;BME280;32099;53.588;10.176;2024-03-23T02:17:22;100343.47;;;7.12;91.50
46394;BME280;32099;53.588;10.176;2024-03-23T02:19:48;100342.28;;;7.06;91.37
46394;BME280;32099;53.588;10.176;2024-03-23T02:22:14;100333.31;;;7.05;90.77
46394;BME280;32099;53.588;10.176;2024-03-23T02:24:42;100336.34;;;7.02;91.43
46394;BME280;32099;53.588;10.176;2024-03-23T02:27:08;100320.28;;;7.01;91.87
46394;BME280;32099;53.588;10.176;2024-03-23T02:29:34;100316.88;;;6.99;91.68
46394;BME280;32099;53.588;10.176;2024-03-23T02:32:00;100322.81;;;7.02;90.94
46394;BME280;32099;53.588;10.176;2024-03-23T02:34:25;100309.44;;;7.01;91.00
46394;BME280;32099;53.588;10.176;2024-03-23T02:36:51;100308.75;;;6.99;90.89
46394;BME280;32099;53.588;10.176;2024-03-23T02:39:17;100304.34;;;6.98;91.86
46394;BME280;32099;53.588;10.176;2024-03-23T02:41:45;100304.50;;;6.96;92.04
46394;BME280;32099;53.588;10.176;2024-03-23T02:44:11;100305.53;;;6.95;91.36
46394;BME280;32099;53.588;10.176;2024-03-23T02:46:37;100306.69;;;6.92;91.67
46394;BME280;32099;53.588;10.176;2024-03-23T02:49:03;100302.47;;;6.90;91.51
46394;BME280;32099;53.588;10.176;2024-03-23T02:51:28;100299.41;;;6.85;92.02
46394;BME280;32099;53.588;10.176;2024-03-23T02:53:54;100293.16;;;6.84;91.86
46394;BME280;32099;53.588;10.176;2024-03-23T02:56:19;100300.59;;;6.82;91.48
46394;BME280;32099;53.588;10.176;2024-03-23T02:58:48;100291.78;;;6.80;92.37
46394;BME280;32099;53.588;10.176;2024-03-23T03:01:14;100295.53;;;6.79;92.12
46394;BME280;32099;53.588;10.176;2024-03-23T03:03:39;100296.91;;;6.75;92.15
46394;BME280;32099;53.588;10.176;2024-03-23T03:06:05;100300.28;;;6.77;92.50
46394;BME280;32099;53.588;10.176;2024-03-23T03:08:31;100183.75;;;6.11;92.33
46394;BME280;32099;53.588;10.176;2024-03-23T03:10:57;100292.50;;;6.74;91.58
46394;BME280;32099;53.588;10.176;2024-03-23T03:13:23;100289.09;;;6.72;92.03
46394;BME280;32099;53.588;10.176;2024-03-23T03:15:51;100283.84;;;6.70;92.47
46394;BME280;32099;53.588;10.176;2024-03-23T03:18:17;100281.16;;;6.70;91.81
46394;BME280;32099;53.588;10.176;2024-03-23T03:20:43;100274.88;;;6.70;91.63
46394;BME280;32099;53.588;10.176;2024-03-23T03:23:09;100266.22;;;6.66;91.82
46394;BME280;32099;53.588;10.176;2024-03-23T03:25:35;100265.91;;;6.61;92.79
46394;BME280;32099;53.588;10.176;2024-03-23T03:28:00;100261.66;;;6.58;93.48
46394;BME280;32099;53.588;10.176;2024-03-23T03:30:26;100265.22;;;6.59;92.82
46394;BME280;32099;53.588;10.176;2024-03-23T03:32:54;100256.09;;;6.60;92.42
46394;BME280;32099;53.588;10.176;2024-03-23T03:35:20;100262.00;;;6.63;92.85
46394;BME280;32099;53.588;10.176;2024-03-23T03:37:46;100262.00;;;6.63;92.79
46394;BME280;32099;53.588;10.176;2024-03-23T03:40:12;100253.00;;;6.63;92.72
46394;BME280;32099;53.588;10.176;2024-03-23T03:42:38;100250.47;;;6.61;92.33
46394;BME280;32099;53.588;10.176;2024-03-23T03:45:05;100239.66;;;6.61;92.49
46394;BME280;32099;53.588;10.176;2024-03-23T03:47:31;100240.66;;;6.60;92.35
46394;BME280;32099;53.588;10.176;2024-03-23T03:50:00;100237.13;;;6.60;92.56
46394;BME280;32099;53.588;10.176;2024-03-23T03:52:25;100235.06;;;6.62;92.89
46394;BME280;32099;53.588;10.176;2024-03-23T03:54:55;100239.47;;;6.63;92.82
46394;BME280;32099;53.588;10.176;2024-03-23T03:57:26;100231.03;;;6.58;92.62
46394;BME280;32099;53.588;10.176;2024-03-23T03:59:52;100231.34;;;6.55;92.55
46394;BME280;32099;53.588;10.176;2024-03-23T04:02:17;100228.97;;;6.52;93.15
46394;BME280;32099;53.588;10.176;2024-03-23T04:04:43;100224.75;;;6.49;92.46
46394;BME280;32099;53.588;10.176;2024-03-23T04:07:11;100216.44;;;6.42;93.46
46394;BME280;32099;53.588;10.176;2024-03-23T04:09:37;100217.63;;;6.40;92.84
46394;BME280;32099;53.588;10.176;2024-03-23T04:12:03;100211.53;;;6.38;92.69
46394;BME280;32099;53.588;10.176;2024-03-23T04:14:29;100220.53;;;6.38;93.09
46394;BME280;32099;53.588;10.176;2024-03-23T04:16:55;100216.94;;;6.38;93.75
46394;BME280;32099;53.588;10.176;2024-03-23T04:19:21;100217.13;;;6.36;93.13
46394;BME280;32099;53.588;10.176;2024-03-23T04:21:47;100217.13;;;6.36;93.53
46394;BME280;32099;53.588;10.176;2024-03-23T04:24:15;100213.75;;;6.34;93.62
46394;BME280;32099;53.588;10.176;2024-03-23T04:26:41;100199.53;;;6.32;93.13
46394;BME280;32099;53.588;10.176;2024-03-23T04:29:07;100203.25;;;6.31;92.96
46394;BME280;32099;53.588;10.176;2024-03-23T04:31:33;100190.72;;;6.30;93.04
46394;BME280;32099;53.588;10.176;2024-03-23T04:33:59;100182.59;;;6.30;92.76
46394;BME280;32099;53.588;10.176;2024-03-23T04:36:25;100182.59;;;6.30;93.29
46394;BME280;32099;53.588;10.176;2024-03-23T04:38:51;100193.78;;;6.27;92.77
46394;BME280;32099;53.588;10.176;2024-03-23T04:41:20;100210.19;;;6.25;94.28
46394;BME280;32099;53.588;10.176;2024-03-23T04:43:46;100165.78;;;5.93;93.02
46394;BME280;32099;53.588;10.176;2024-03-23T04:46:12;100218.63;;;6.22;93.17
46394;BME280;32099;53.588;10.176;2024-03-23T04:48:37;100219.50;;;6.23;93.66
46394;BME280;32099;53.588;10.176;2024-03-23T04:51:03;100214.25;;;6.21;93.35
46394;BME280;32099;53.588;10.176;2024-03-23T04:53:29;100222.00;;;6.16;93.64
46394;BME280;32099;53.588;10.176;2024-03-23T04:55:55;100235.88;;;6.13;93.12
46394;BME280;32099;53.588;10.176;2024-03-23T04:58:24;100230.47;;;6.13;92.88
46394;BME280;32099;53.588;10.176;2024-03-23T05:00:54;100215.91;;;6.14;93.03
46394;BME280;32099;53.588;10.176;2024-03-23T05:03:19;100204.91;;;6.15;93.57
46394;BME280;32099;53.588;10.176;2024-03-23T05:05:45;100193.44;;;6.13;93.22
46394;BME280;32099;53.588;10.176;2024-03-23T05:08:11;100186.31;;;6.12;93.42
46394;BME280;32099;53.588;10.176;2024-03-23T05:10:36;100188.16;;;6.12;93.45
46394;BME280;32099;53.588;10.176;2024-03-23T05:13:02;100179.22;;;6.11;93.37
46394;BME280;32099;53.588;10.176;2024-03-23T05:15:30;100184.63;;;6.11;94.17
46394;BME280;32099;53.588;10.176;2024-03-23T05:17:56;100135.84;;;5.78;93.97
46394;BME280;32099;53.588;10.176;2024-03-23T05:20:22;100196.97;;;6.14;92.98
46394;BME280;32099;53.588;10.176;2024-03-23T05:22:47;100189.72;;;6.14;93.65
46394;BME280;32099;53.588;10.176;2024-03-23T05:25:13;100192.25;;;6.16;92.87
46394;BME280;32099;53.588;10.176;2024-03-23T05:27:39;100196.63;;;6.17;92.87
46394;BME280;32099;53.588;10.176;2024-03-23T05:30:05;100185.13;;;6.15;92.95
46394;BME280;32099;53.588;10.176;2024-03-23T05:32:35;100188.50;;;6.17;92.40
46394;BME280;32099;53.588;10.176;2024-03-23T05:35:00;100182.25;;;6.16;93.27
46394;BME280;32099;53.588;10.176;2024-03-23T05:37:26;100190.38;;;6.16;92.52
46394;BME280;32099;53.588;10.176;2024-03-23T05:39:52;100189.34;;;6.17;92.37
46394;BME280;32099;53.588;10.176;2024-03-23T05:42:18;100193.94;;;6.17;92.83
46394;BME280;32099;53.588;10.176;2024-03-23T05:44:44;100182.75;;;6.12;93.42
46394;BME280;32099;53.588;10.176;2024-03-23T05:47:10;100176.31;;;6.13;93.76
46394;BME280;32099;53.588;10.176;2024-03-23T05:49:42;100170.06;;;6.12;93.33
46394;BME280;32099;53.588;10.176;2024-03-23T05:52:08;100163.78;;;6.12;93.62
46394;BME280;32099;53.588;10.176;2024-03-23T05:54:34;100164.81;;;6.11;93.42
46394;BME280;32099;53.588;10.176;2024-03-23T05:57:00;100151.81;;;6.14;94.01
46394;BME280;32099;53.588;10.176;2024-03-23T05:59:26;100152.63;;;6.15;93.06
46394;BME280;32099;53.588;10.176;2024-03-23T06:01:52;100154.16;;;6.17;93.41
46394;BME280;32099;53.588;10.176;2024-03-23T06:04:18;100152.13;;;6.20;93.66
46394;BME280;32099;53.588;10.176;2024-03-23T06:06:47;100139.28;;;6.22;93.86
46394;BME280;32099;53.588;10.176;2024-03-23T06:09:12;100149.28;;;6.21;94.00
46394;BME280;32099;53.588;10.176;2024-03-23T06:11:38;100155.69;;;6.20;94.16
46394;BME280;32099;53.588;10.176;2024-03-23T06:14:04;100150.94;;;6.22;93.12
46394;BME280;32099;53.588;10.176;2024-03-23T06:16:30;100142.34;;;6.27;92.80
46394;BME280;32099;53.588;10.176;2024-03-23T06:18:55;100155.50;;;6.30;93.63
46394;BME280;32099;53.588;10.176;2024-03-23T06:21:21;100153.31;;;6.33;93.61
46394;BME280;32099;53.588;10.176;2024-03-23T06:23:50;100152.63;;;6.40;94.05
46394;BME280;32099;53.588;10.176;2024-03-23T06:26:17;100157.72;;;6.43;93.94
46394;BME280;32099;53.588;10.176;2024-03-23T06:28:45;100156.53;;;6.45;93.77
46394;BME280;32099;53.588;10.176;2024-03-23T06:31:11;100156.84;;;6.51;93.85
46394;BME280;32099;53.588;10.176;2024-03-23T06:33:38;100152.59;;;6.56;93.54
46394;BME280;32099;53.588;10.176;2024-03-23T06:36:04;100150.91;;;6.63;92.63
46394;BME280;32099;53.588;10.176;2024-03-23T06:38:30;100147.69;;;6.68;92.98
46394;BME280;32099;53.588;10.176;2024-03-23T06:41:02;100153.44;;;6.73;93.78
46394;BME280;32099;53.588;10.176;2024-03-23T06:43:27;100149.19;;;6.79;93.04
46394;BME280;32099;53.588;10.176;2024-03-23T06:45:53;100151.72;;;6.89;93.23
46394;BME280;32099;53.588;10.176;2024-03-23T06:48:19;100152.19;;;7.01;93.51
46394;BME280;32099;53.588;10.176;2024-03-23T06:50:45;100147.59;;;7.01;92.75
46394;BME280;32099;53.588;10.176;2024-03-23T06:53:11;100146.41;;;7.04;92.22
46394;BME280;32099;53.588;10.176;2024-03-23T06:55:37;100134.53;;;7.05;91.18
46394;BME280;32099;53.588;10.176;2024-03-23T06:58:05;100135.91;;;7.09;90.99
46394;BME280;32099;53.588;10.176;2024-03-23T07:00:33;100133.16;;;7.17;90.77
46394;BME280;32099;53.588;10.176;2024-03-23T07:02:59;100136.50;;;7.28;91.10
46394;BME280;32099;53.588;10.176;2024-03-23T07:05:25;100131.38;;;7.33;89.93
46394;BME280;32099;53.588;10.176;2024-03-23T07:07:51;100140.00;;;7.36;90.14
46394;BME280;32099;53.588;10.176;2024-03-23T07:10:16;100132.22;;;7.33;90.04
46394;BME280;32099;53.588;10.176;2024-03-23T07:12:42;100143.44;;;7.30;89.50
46394;BME280;32099;53.588;10.176;2024-03-23T07:15:11;100139.19;;;7.28;89.58
46394;BME280;32099;53.588;10.176;2024-03-23T07:17:36;100141.22;;;7.25;89.91
46394;BME280;32099;53.588;10.176;2024-03-23T07:20:02;100136.00;;;7.24;88.95
46394;BME280;32099;53.588;10.176;2024-03-23T07:22:28;100140.06;;;7.20;89.33
46394;BME280;32099;53.588;10.176;2024-03-23T07:24:54;100139.72;;;7.23;89.34
46394;BME280;32099;53.588;10.176;2024-03-23T07:27:20;100137.16;;;7.30;89.40
46394;BME280;32099;53.588;10.176;2024-03-23T07:29:45;100137.97;;;7.38;89.27
46394;BME280;32099;53.588;10.176;2024-03-23T07:32:16;100141.84;;;7.44;89.19
46394;BME280;32099;53.588;10.176;2024-03-23T07:34:42;100149.59;;;7.55;88.05
46394;BME280;32099;53.588;10.176;2024-03-23T07:37:07;100144.09;;;7.64;88.58
46394;BME280;32099;53.588;10.176;2024-03-23T07:39:33;100147.31;;;7.67;87.18
46394;BME280;32099;53.588;10.176;2024-03-23T07:41:59;100138.31;;;7.67;87.54
46394;BME280;32099;53.588;10.176;2024-03-23T07:44:24;100139.84;;;7.69;87.99
46394;BME280;32099;53.588;10.176;2024-03-23T07:46:50;100144.56;;;7.76;86.85
46394;BME280;32099;53.588;10.176;2024-03-23T07:49:18;100129.53;;;7.88;88.00
46394;BME280;32099;53.588;10.176;2024-03-23T07:51:44;100127.91;;;8.02;86.38
46394;BME280;32099;53.588;10.176;2024-03-23T07:54:10;100129.66;;;8.18;87.39
46394;BME280;32099;53.588;10.176;2024-03-23T07:56:38;100126.50;;;8.29;85.92
46394;BME280;32099;53.588;10.176;2024-03-23T07:59:04;100129.13;;;8.38;85.76
46394;BME280;32099;53.588;10.176;2024-03-23T08:01:30;100126.41;;;8.38;84.30
46394;BME280;32099;53.588;10.176;2024-03-23T08:03:55;100120.31;;;8.36;84.98
46394;BME280;32099;53.588;10.176;2024-03-23T08:06:24;100118.19;;;8.46;83.49
46394;BME280;32099;53.588;10.176;2024-03-23T08:08:51;100111.59;;;8.63;84.74
46394;BME280;32099;53.588;10.176;2024-03-23T08:11:18;100120.06;;;8.84;84.35
46394;BME280;32099;53.588;10.176;2024-03-23T08:13:44;100060.78;;;8.64;83.27
46394;BME280;32099;53.588;10.176;2024-03-23T08:16:10;100120.97;;;9.21;81.89
46394;BME280;32099;53.588;10.176;2024-03-23T08:18:36;100125.84;;;9.25;80.91
46394;BME280;32099;53.588;10.176;2024-03-23T08:21:02;100114.78;;;9.27;80.52
46394;BME280;32099;53.588;10.176;2024-03-23T08:23:38;100115.03;;;9.32;82.00
46394;BME280;32099;53.588;10.176;2024-03-23T08:26:04;100107.31;;;9.51;80.95
46394;BME280;32099;53.588;10.176;2024-03-23T08:28:31;100101.63;;;9.67;79.99
46394;BME280;32099;53.588;10.176;2024-03-23T08:31:00;100110.00;;;9.66;77.58
46394;BME280;32099;53.588;10.176;2024-03-23T08:33:26;100104.81;;;9.71;78.67
46394;BME280;32099;53.588;10.176;2024-03-23T08:35:54;100096.38;;;9.87;79.63
46394;BME280;32099;53.588;10.176;2024-03-23T08:38:21;100108.06;;;10.03;77.63
46394;BME280;32099;53.588;10.176;2024-03-23T08:40:55;100099.50;;;10.06;79.30
46394;BME280;32099;53.588;10.176;2024-03-23T08:43:24;100085.38;;;10.24;79.59
46394;BME280;32099;53.588;10.176;2024-03-23T08:45:50;100093.09;;;10.42;78.58
46394;BME280;32099;53.588;10.176;2024-03-23T08:48:16;100090.28;;;10.35;76.00
46394;BME280;32099;53.588;10.176;2024-03-23T08:50:42;100090.00;;;10.24;77.18
46394;BME280;32099;53.588;10.176;2024-03-23T08:53:08;100092.69;;;10.17;77.94
46394;BME280;32099;53.588;10.176;2024-03-23T08:55:36;100078.28;;;10.23;74.99
46394;BME280;32099;53.588;10.176;2024-03-23T08:58:04;100087.00;;;10.18;77.51
46394;BME280;32099;53.588;10.176;2024-03-23T09:00:30;100069.50;;;10.28;76.81
46394;BME280;32099;53.588;10.176;2024-03-23T09:02:55;100073.69;;;10.52;77.24
46394;BME280;32099;53.588;10.176;2024-03-23T09:05:21;100068.81;;;10.76;75.97
46394;BME280;32099;53.588;10.176;2024-03-23T09:07:47;100071.22;;;10.99;72.01
46394;BME280;32099;53.588;10.176;2024-03-23T09:10:12;100070.63;;;10.97;70.52
46394;BME280;32099;53.588;10.176;2024-03-23T09:12:38;100066.38;;;10.94;73.24
46394;BME280;32099;53.588;10.176;2024-03-23T09:15:07;100077.16;;;11.03;73.51
46394;BME280;32099;53.588;10.176;2024-03-23T09:17:32;100068.53;;;11.06;73.41
46394;BME280;32099;53.588;10.176;2024-03-23T09:19:58;100062.84;;;11.01;74.63
46394;BME280;32099;53.588;10.176;2024-03-23T09:22:24;100063.41;;;10.83;70.90
46394;BME280;32099;53.588;10.176;2024-03-23T09:24:49;100067.84;;;10.55;71.94
46394;BME280;32099;53.588;10.176;2024-03-23T09:27:15;100073.13;;;10.35;69.40
46394;BME280;32099;53.588;10.176;2024-03-23T09:29:41;100063.81;;;10.51;74.11
46394;BME280;32099;53.588;10.176;2024-03-23T09:32:09;100058.72;;;10.76;71.46
46394;BME280;32099;53.588;10.176;2024-03-23T09:34:35;100054.56;;;10.80;71.59
46394;BME280;32099;53.588;10.176;2024-03-23T09:37:00;100057.09;;;10.82;66.92
46394;BME280;32099;53.588;10.176;2024-03-23T09:39:26;100047.59;;;10.71;65.88
46394;BME280;32099;53.588;10.176;2024-03-23T09:41:56;100056.72;;;10.57;70.41
46394;BME280;32099;53.588;10.176;2024-03-23T09:44:22;100058.97;;;10.46;66.57
46394;BME280;32099;53.588;10.176;2024-03-23T09:46:48;100063.03;;;10.35;69.98
46394;BME280;32099;53.588;10.176;2024-03-23T09:49:16;100055.41;;;10.24;68.87
46394;BME280;32099;53.588;10.176;2024-03-23T09:51:42;100066.84;;;10.13;70.34
46394;BME280;32099;53.588;10.176;2024-03-23T09:54:08;100064.94;;;10.07;68.92
46394;BME280;32099;53.588;10.176;2024-03-23T09:56:33;100053.59;;;10.31;71.05
46394;BME280;32099;53.588;10.176;2024-03-23T09:59:02;100045.75;;;10.78;69.07
46394;BME280;32099;53.588;10.176;2024-03-23T10:01:29;100044.28;;;11.24;70.10
46394;BME280;32099;53.588;10.176;2024-03-23T10:03:55;100039.50;;;11.53;66.75
46394;BME280;32099;53.588;10.176;2024-03-23T10:06:24;100043.31;;;11.66;63.76
46394;BME280;32099;53.588;10.176;2024-03-23T10:08:49;99975.88;;;11.39;64.97
46394;BME280;32099;53.588;10.176;2024-03-23T10:11:15;100042.31;;;11.94;62.12
46394;BME280;32099;53.588;10.176;2024-03-23T10:13:42;100043.34;;;11.86;66.61
46394;BME280;32099;53.588;10.176;2024-03-23T10:16:08;100046.66;;;11.54;65.39
46394;BME280;32099;53.588;10.176;2024-03-23T10:18:36;100041.75;;;11.30;64.45
46394;BME280;32099;53.588;10.176;2024-03-23T10:21:09;100044.41;;;11.03;66.61
46394;BME280;32099;53.588;10.176;2024-03-23T10:23:38;100053.31;;;10.83;65.28
46394;BME280;32099;53.588;10.176;2024-03-23T10:26:17;100046.03;;;10.55;68.41
46394;BME280;32099;53.588;10.176;2024-03-23T10:28:56;100047.88;;;10.48;66.31
46394;BME280;32099;53.588;10.176;2024-03-23T10:31:22;100039.03;;;10.74;68.82
46394;BME280;32099;53.588;10.176;2024-03-23T10:33:48;100032.59;;;10.95;68.56
46394;BME280;32099;53.588;10.176;2024-03-23T10:36:14;100034.31;;;11.03;66.85
46394;BME280;32099;53.588;10.176;2024-03-23T10:38:43;100032.28;;;11.19;67.38
46394;BME280;32099;53.588;10.176;2024-03-23T10:41:09;100014.91;;;11.40;70.09
46394;BME280;32099;53.588;10.176;2024-03-23T10:43:37;100009.66;;;11.38;66.33
46394;BME280;32099;53.588;10.176;2024-03-23T10:46:03;100020.75;;;11.23;65.58
46394;BME280;32099;53.588;10.176;2024-03-23T10:48:29;100012.94;;;11.07;67.86
46394;BME280;32099;53.588;10.176;2024-03-23T10:50:56;100022.94;;;10.93;64.96
46394;BME280;32099;53.588;10.176;2024-03-23T10:53:23;100018.44;;;10.72;65.98
46394;BME280;32099;53.588;10.176;2024-03-23T10:55:54;100018.53;;;10.50;67.48
46394;BME280;32099;53.588;10.176;2024-03-23T10:58:21;100028.88;;;10.33;69.31
46394;BME280;32099;53.588;10.176;2024-03-23T11:00:51;100024.34;;;10.12;69.51
46394;BME280;32099;53.588;10.176;2024-03-23T11:03:32;100015.13;;;9.91;71.56
46394;BME280;32099;53.588;10.176;2024-03-23T11:05:58;100015.72;;;9.86;70.92
46394;BME280;32099;53.588;10.176;2024-03-23T11:08:29;100010.69;;;9.83;70.32
46394;BME280;32099;53.588;10.176;2024-03-23T11:13:39;100007.00;;;9.69;70.98
46394;BME280;32099;53.588;10.176;2024-03-23T11:16:15;100009.00;;;9.61;70.81
46394;BME280;32099;53.588;10.176;2024-03-23T11:18:41;100017.31;;;9.52;69.97
46394;BME280;32099;53.588;10.176;2024-03-23T11:21:08;100001.47;;;9.41;68.70
46394;BME280;32099;53.588;10.176;2024-03-23T11:23:33;100001.47;;;9.41;68.70
46394;BME280;32099;53.588;10.176;2024-03-23T11:25:59;99947.50;;;9.45;73.15
46394;BME280;32099;53.588;10.176;2024-03-23T11:28:28;99996.44;;;10.10;73.33
46394;BME280;32099;53.588;10.176;2024-03-23T11:30:53;99936.81;;;9.93;69.59
46394;BME280;32099;53.588;10.176;2024-03-23T11:33:19;99981.22;;;10.51;70.78
46394;BME280;32099;53.588;10.176;2024-03-23T11:35:45;99989.47;;;10.71;70.02
46394;BME280;32099;53.588;10.176;2024-03-23T11:38:11;99983.06;;;10.92;67.51
46394;BME280;32099;53.588;10.176;2024-03-23T11:40:38;99986.66;;;10.99;65.55
46394;BME280;32099;53.588;10.176;2024-03-23T11:43:05;99978.69;;;10.98;61.02
46394;BME280;32099;53.588;10.176;2024-03-23T11:45:37;99977.69;;;11.05;66.14
46394;BME280;32099;53.588;10.176;2024-03-23T11:48:05;99978.53;;;11.13;62.14
46394;BME280;32099;53.588;10.176;2024-03-23T11:50:32;99978.97;;;11.09;63.07
46394;BME280;32099;53.588;10.176;2024-03-23T11:55:48;99969.78;;;11.37;64.35
46394;BME280;32099;53.588;10.176;2024-03-23T11:58:15;99968.09;;;11.50;60.84
46394;BME280;32099;53.588;10.176;2024-03-23T12:00:48;99977.16;;;11.64;63.94
46394;BME280;32099;53.588;10.176;2024-03-23T12:03:15;99965.19;;;11.78;62.20
46394;BME280;32099;53.588;10.176;2024-03-23T12:05:41;99970.22;;;11.95;63.07
46394;BME280;32099;53.588;10.176;2024-03-23T12:08:20;99971.72;;;12.11;62.93
46394;BME280;32099;53.588;10.176;2024-03-23T12:10:47;99975.28;;;12.18;63.82
46394;BME280;32099;53.588;10.176;2024-03-23T12:13:15;99982.63;;;12.24;59.64
46394;BME280;32099;53.588;10.176;2024-03-23T12:15:47;100018.81;;;11.99;57.91
46394;BME280;32099;53.588;10.176;2024-03-23T12:18:14;100032.09;;;11.27;60.44
46394;BME280;32099;53.588;10.176;2024-03-23T12:20:42;100049.75;;;10.47;66.17
46394;BME280;32099;53.588;10.176;2024-03-23T12:23:09;100051.19;;;9.71;68.61
46394;BME280;32099;53.588;10.176;2024-03-23T12:25:37;100063.50;;;8.94;72.65
46394;BME280;32099;53.588;10.176;2024-03-23T12:28:05;100039.16;;;8.56;74.73
46394;BME280;32099;53.588;10.176;2024-03-23T12:30:31;100034.28;;;8.51;77.08
46394;BME280;32099;53.588;10.176;2024-03-23T12:33:00;100024.88;;;8.69;78.03
46394;BME280;32099;53.588;10.176;2024-03-23T12:35:26;100020.19;;;8.92;78.95
46394;BME280;32099;53.588;10.176;2024-03-23T12:37:51;100023.72;;;9.08;76.41
46394;BME280;32099;53.588;10.176;2024-03-23T12:40:17;99983.06;;;9.00;73.36
46394;BME280;32099;53.588;10.176;2024-03-23T12:42:45;100000.66;;;9.19;74.35
46394;BME280;32099;53.588;10.176;2024-03-23T12:45:10;100007.19;;;9.24;74.59
46394;BME280;32099;53.588;10.176;2024-03-23T12:47:36;100014.38;;;9.32;74.85
46394;BME280;32099;53.588;10.176;2024-03-23T12:50:05;100014.78;;;9.29;73.56
46394;BME280;32099;53.588;10.176;2024-03-23T12:52:31;100025.38;;;9.24;73.16
46394;BME280;32099;53.588;10.176;2024-03-23T12:54:57;100041.25;;;9.20;72.75
46394;BME280;32099;53.588;10.176;2024-03-23T12:57:23;100062.03;;;8.91;72.75
46394;BME280;32099;53.588;10.176;2024-03-23T12:59:48;100069.34;;;8.23;72.80
46394;BME280;32099;53.588;10.176;2024-03-23T13:02:14;100047.28;;;7.64;76.58
46394;BME280;32099;53.588;10.176;2024-03-23T13:04:40;100045.44;;;7.33;79.85
46394;BME280;32099;53.588;10.176;2024-03-23T13:07:08;100047.41;;;7.16;82.31
46394;BME280;32099;53.588;10.176;2024-03-23T13:09:34;100049.94;;;7.18;81.92
46394;BME280;32099;53.588;10.176;2024-03-23T13:12:02;100048.41;;;7.15;82.51
46394;BME280;32099;53.588;10.176;2024-03-23T13:14:28;100039.50;;;7.06;82.16
46394;BME280;32099;53.588;10.176;2024-03-23T13:16:54;100047.13;;;7.03;81.95
46394;BME280;32099;53.588;10.176;2024-03-23T13:19:22;100048.66;;;6.97;81.47
46394;BME280;32099;53.588;10.176;2024-03-23T13:21:48;100049.34;;;6.99;82.03
46394;BME280;32099;53.588;10.176;2024-03-23T13:24:16;100043.97;;;6.91;81.55
46394;BME280;32099;53.588;10.176;2024-03-23T13:26:42;100048.31;;;7.00;82.70
46394;BME280;32099;53.588;10.176;2024-03-23T13:29:07;100039.44;;;7.15;83.30
46394;BME280;32099;53.588;10.176;2024-03-23T13:31:33;100037.97;;;7.35;82.81
46394;BME280;32099;53.588;10.176;2024-03-23T13:33:59;100042.78;;;7.48;83.59
46394;BME280;32099;53.588;10.176;2024-03-23T13:36:24;100038.47;;;7.62;82.64
46394;BME280;32099;53.588;10.176;2024-03-23T13:38:50;100040.28;;;7.70;83.22
46394;BME280;32099;53.588;10.176;2024-03-23T13:41:19;100042.25;;;7.76;80.37
46394;BME280;32099;53.588;10.176;2024-03-23T13:43:44;100042.13;;;7.69;80.29